createdAt,value
2023-03-06T00:01:09.185Z,100.00
2023-03-06T00:03:36.731Z,100.00
2023-03-06T00:06:04.592Z,100.00
2023-03-06T00:08:32.153Z,100.00
2023-03-06T00:11:01.038Z,100.00
2023-03-06T00:13:30.559Z,100.00
2023-03-06T00:16:00.212Z,100.00
2023-03-06T00:18:28.046Z,100.00
2023-03-06T00:20:55.577Z,100.00
2023-03-06T00:23:23.431Z,100.00
2023-03-06T00:25:50.938Z,100.00
2023-03-06T00:28:19.901Z,100.00
2023-03-06T00:30:48.528Z,100.00
2023-03-06T00:33:16.068Z,100.00
2023-03-06T00:35:43.688Z,100.00
2023-03-06T00:38:13.471Z,100.00
2023-03-06T00:40:41.089Z,100.00
2023-03-06T00:43:08.688Z,100.00
2023-03-06T00:45:37.749Z,100.00
2023-03-06T00:48:06.385Z,100.00
2023-03-06T00:50:35.045Z,100.00
2023-03-06T00:53:02.663Z,100.00
2023-03-06T00:55:31.061Z,100.00
2023-03-06T00:57:58.628Z,100.00
2023-03-06T01:00:28.822Z,100.00
2023-03-06T01:02:57.680Z,100.00
2023-03-06T01:05:25.281Z,100.00
2023-03-06T01:07:52.983Z,100.00
2023-03-06T01:10:20.774Z,100.00
2023-03-06T01:12:48.660Z,100.00
2023-03-06T01:15:16.243Z,100.00
2023-03-06T01:17:43.813Z,100.00
2023-03-06T01:20:14.945Z,100.00
2023-03-06T01:22:43.022Z,100.00
2023-03-06T01:25:10.951Z,100.00
2023-03-06T01:27:38.452Z,100.00
2023-03-06T01:30:07.155Z,100.00
2023-03-06T01:32:34.851Z,100.00
2023-03-06T01:35:03.663Z,100.00
2023-03-06T01:37:32.532Z,100.00
2023-03-06T01:40:00.093Z,100.00
2023-03-06T01:42:27.647Z,100.00
2023-03-06T01:45:03.177Z,100.00
2023-03-06T01:47:30.833Z,100.00
2023-03-06T01:49:59.879Z,100.00
2023-03-06T01:52:30.295Z,100.00
2023-03-06T01:55:03.345Z,100.00
2023-03-06T01:57:34.275Z,100.00
2023-03-06T02:00:06.005Z,100.00
2023-03-06T02:02:43.453Z,100.00
2023-03-06T02:05:11.009Z,100.00
2023-03-06T02:07:41.039Z,100.00
2023-03-06T02:10:11.509Z,100.00
2023-03-06T02:12:42.243Z,100.00
2023-03-06T02:15:19.256Z,100.00
2023-03-06T02:17:49.538Z,100.00
2023-03-06T02:20:24.621Z,100.00
2023-03-06T02:22:58.928Z,100.00
2023-03-06T02:25:37.132Z,100.00
2023-03-06T02:28:06.005Z,100.00
2023-03-06T02:30:34.114Z,100.00
2023-03-06T02:33:03.999Z,100.00
2023-03-06T02:35:34.512Z,100.00
2023-03-06T02:38:07.322Z,100.00
2023-03-06T02:40:36.658Z,100.00
2023-03-06T02:43:04.753Z,100.00
2023-03-06T02:45:37.751Z,100.00
2023-03-06T02:48:06.569Z,100.00
2023-03-06T02:50:34.505Z,100.00
2023-03-06T02:53:02.142Z,100.00
2023-03-06T02:55:31.619Z,100.00
2023-03-06T02:58:01.472Z,100.00
2023-03-06T03:00:30.518Z,100.00
2023-03-06T03:02:58.409Z,100.00
2023-03-06T03:05:26.989Z,100.00
2023-03-06T03:08:00.432Z,100.00
2023-03-06T03:10:29.802Z,100.00
2023-03-06T03:12:58.205Z,100.00
2023-03-06T03:15:27.522Z,100.00
2023-03-06T03:17:55.072Z,100.00
2023-03-06T03:20:23.519Z,100.00
2023-03-06T03:22:54.839Z,100.00
2023-03-06T03:25:23.870Z,100.00
2023-03-06T03:27:52.574Z,100.00
2023-03-06T03:30:21.144Z,100.00
2023-03-06T03:32:50.639Z,100.00
2023-03-06T03:35:18.991Z,100.00
2023-03-06T03:37:47.669Z,100.00
2023-03-06T03:40:15.735Z,100.00
2023-03-06T03:42:43.365Z,100.00
2023-03-06T03:45:12.486Z,100.00
2023-03-06T03:47:41.400Z,100.00
2023-03-06T03:50:11.959Z,100.00
2023-03-06T03:52:39.970Z,100.00
2023-03-06T03:55:08.924Z,100.00
2023-03-06T03:57:39.282Z,100.00
2023-03-06T04:00:09.864Z,100.00
2023-03-06T04:02:59.999Z,100.00
2023-03-06T04:05:34.106Z,100.00
2023-03-06T04:08:04.208Z,100.00
2023-03-06T04:10:34.184Z,100.00
2023-03-06T04:13:02.595Z,100.00
2023-03-06T04:15:30.406Z,100.00
2023-03-06T04:17:58.077Z,100.00
2023-03-06T04:20:28.844Z,100.00
2023-03-06T04:22:59.330Z,100.00
2023-03-06T04:25:26.919Z,100.00
2023-03-06T04:27:54.610Z,100.00
2023-03-06T04:30:22.579Z,100.00
2023-03-06T04:32:50.095Z,100.00
2023-03-06T04:35:18.138Z,100.00
2023-03-06T04:37:55.791Z,100.00
2023-03-06T04:40:28.881Z,100.00
2023-03-06T04:42:57.280Z,100.00
2023-03-06T04:45:25.645Z,100.00
2023-03-06T04:47:53.434Z,100.00
2023-03-06T04:50:22.230Z,100.00
2023-03-06T04:52:49.745Z,100.00
2023-03-06T04:55:18.339Z,100.00
2023-03-06T04:57:48.073Z,100.00
2023-03-06T05:00:18.224Z,100.00
2023-03-06T05:02:46.613Z,100.00
2023-03-06T05:05:15.758Z,100.00
2023-03-06T05:07:43.773Z,100.00
2023-03-06T05:10:14.041Z,100.00
2023-03-06T05:12:41.956Z,100.00
2023-03-06T05:15:12.971Z,100.00
2023-03-06T05:17:40.575Z,100.00
2023-03-06T05:20:11.263Z,100.00
2023-03-06T05:22:39.008Z,100.00
2023-03-06T05:25:07.375Z,100.00
2023-03-06T05:27:35.371Z,100.00
2023-03-06T05:30:03.662Z,100.00
2023-03-06T05:32:35.368Z,100.00
2023-03-06T05:35:03.290Z,100.00
2023-03-06T05:37:30.977Z,100.00
2023-03-06T05:39:58.688Z,100.00
2023-03-06T05:42:28.611Z,100.00
2023-03-06T05:44:56.273Z,100.00
2023-03-06T05:47:23.814Z,100.00
2023-03-06T05:49:52.685Z,100.00
2023-03-06T05:52:20.459Z,100.00
2023-03-06T05:54:50.875Z,100.00
2023-03-06T05:57:20.422Z,100.00
2023-03-06T05:59:48.530Z,100.00
2023-03-06T06:02:16.218Z,100.00
2023-03-06T06:04:44.338Z,100.00
2023-03-06T06:07:15.949Z,100.00
2023-03-06T06:09:45.357Z,100.00
2023-03-06T06:12:13.978Z,100.00
2023-03-06T06:14:41.580Z,100.00
2023-03-06T06:17:09.132Z,100.00
2023-03-06T06:19:36.698Z,100.00
2023-03-06T06:22:04.312Z,100.00
2023-03-06T06:24:33.252Z,100.00
2023-03-06T06:27:03.756Z,100.00
2023-03-06T06:29:32.016Z,100.00
2023-03-06T06:32:00.368Z,100.00
2023-03-06T06:34:29.015Z,100.00
2023-03-06T06:36:56.564Z,100.00
2023-03-06T06:39:25.318Z,100.00
2023-03-06T06:42:26.083Z,100.00
2023-03-06T06:44:41.705Z,100.00
2023-03-06T06:47:25.759Z,100.00
2023-03-06T06:49:55.369Z,100.00
2023-03-06T06:52:23.609Z,100.00
2023-03-06T06:54:51.223Z,100.00
2023-03-06T06:57:20.160Z,100.00
2023-03-06T06:59:47.719Z,100.00
2023-03-06T07:02:16.438Z,100.00
2023-03-06T07:05:01.962Z,100.00
2023-03-06T07:07:30.624Z,100.00
2023-03-06T07:09:58.160Z,100.00
2023-03-06T07:12:27.140Z,100.00
2023-03-06T07:14:54.703Z,100.00
2023-03-06T07:17:22.289Z,100.00
2023-03-06T07:19:50.157Z,100.00
2023-03-06T07:22:17.669Z,100.00
2023-03-06T07:24:45.187Z,100.00
2023-03-06T07:27:13.069Z,100.00
2023-03-06T07:29:43.213Z,100.00
2023-03-06T07:32:11.144Z,100.00
2023-03-06T07:34:38.725Z,100.00
2023-03-06T07:37:06.322Z,100.00
2023-03-06T07:39:33.917Z,100.00
2023-03-06T07:42:01.569Z,100.00
2023-03-06T07:44:29.096Z,100.00
2023-03-06T07:46:58.094Z,100.00
2023-03-06T07:49:25.682Z,100.00
2023-03-06T07:51:53.256Z,100.00
2023-03-06T07:54:20.843Z,100.00
2023-03-06T07:56:51.118Z,100.00
2023-03-06T07:59:18.969Z,100.00
2023-03-06T08:01:46.548Z,100.00
2023-03-06T08:04:15.627Z,100.00
2023-03-06T08:06:43.266Z,100.00
2023-03-06T08:09:10.795Z,100.00
2023-03-06T08:11:38.358Z,100.00
2023-03-06T08:14:05.925Z,100.00
2023-03-06T08:16:33.623Z,100.00
2023-03-06T08:19:01.190Z,100.00
2023-03-06T08:21:30.210Z,100.00
2023-03-06T08:23:57.870Z,100.00
2023-03-06T08:26:28.713Z,100.00
2023-03-06T08:28:58.264Z,100.00
2023-03-06T08:31:28.655Z,100.00
2023-03-06T08:33:58.042Z,100.00
2023-03-06T08:36:25.957Z,100.00
2023-03-06T08:38:54.951Z,100.00
2023-03-06T08:41:23.317Z,100.00
2023-03-06T08:43:51.332Z,100.00
2023-03-06T08:46:19.716Z,100.00
2023-03-06T08:48:48.157Z,100.00
2023-03-06T08:51:16.202Z,100.00
2023-03-06T08:53:44.527Z,100.00
2023-03-06T08:56:18.507Z,100.00
2023-03-06T08:58:46.540Z,100.00
2023-03-06T09:01:15.817Z,100.00
2023-03-06T09:03:43.505Z,100.00
2023-03-06T09:06:11.406Z,100.00
2023-03-06T09:08:42.819Z,100.00
2023-03-06T09:11:10.837Z,100.00
2023-03-06T09:13:40.003Z,100.00
2023-03-06T09:16:08.779Z,100.00
2023-03-06T09:18:36.663Z,100.00
2023-03-06T09:21:04.866Z,100.00
2023-03-06T09:23:32.773Z,100.00
2023-03-06T09:26:01.442Z,100.00
2023-03-06T09:28:28.999Z,100.00
2023-03-06T09:30:58.106Z,100.00
2023-03-06T09:33:25.666Z,100.00
2023-03-06T09:35:55.476Z,100.00
2023-03-06T09:38:25.006Z,100.00
2023-03-06T09:41:04.540Z,100.00
2023-03-06T09:43:36.282Z,100.00
2023-03-06T09:46:17.500Z,100.00
2023-03-06T09:48:57.929Z,100.00
2023-03-06T09:51:33.953Z,100.00
2023-03-06T09:54:12.778Z,100.00
2023-03-06T09:56:45.057Z,100.00
2023-03-06T09:59:18.240Z,100.00
2023-03-06T10:01:54.922Z,100.00
2023-03-06T10:04:35.521Z,100.00
2023-03-06T10:07:09.285Z,100.00
2023-03-06T10:09:43.936Z,100.00
2023-03-06T10:12:25.051Z,100.00
2023-03-06T10:15:12.966Z,100.00
2023-03-06T10:17:43.403Z,100.00
2023-03-06T10:20:18.663Z,100.00
2023-03-06T10:23:00.637Z,100.00
2023-03-06T10:25:33.826Z,100.00
2023-03-06T10:28:10.519Z,98.94
2023-03-06T10:30:43.429Z,99.52
2023-03-06T10:33:23.638Z,100.00
2023-03-06T10:35:53.210Z,99.23
2023-03-06T10:38:23.990Z,96.87
2023-03-06T10:41:20.691Z,96.88
2023-03-06T10:44:18.892Z,97.04
2023-03-06T10:46:48.776Z,97.23
2023-03-06T10:49:31.019Z,98.57
2023-03-06T10:52:01.677Z,96.91
2023-03-06T10:54:30.870Z,95.30
2023-03-06T10:56:58.530Z,96.99
2023-03-06T10:59:28.390Z,94.75
2023-03-06T11:01:58.027Z,94.71
2023-03-06T11:04:30.098Z,95.04
2023-03-06T11:07:13.035Z,94.38
2023-03-06T11:09:41.789Z,93.52
2023-03-06T11:12:26.079Z,92.07
2023-03-06T11:15:18.464Z,90.44
2023-03-06T11:17:52.295Z,90.10
2023-03-06T11:20:24.768Z,89.40
2023-03-06T11:22:56.527Z,89.33
2023-03-06T11:25:30.814Z,90.33
2023-03-06T11:28:03.220Z,86.68
2023-03-06T11:30:38.437Z,85.69
2023-03-06T11:33:16.462Z,82.74
2023-03-06T11:35:52.777Z,82.50
2023-03-06T11:38:26.970Z,82.26
2023-03-06T11:40:56.957Z,82.10
2023-03-06T11:43:33.416Z,81.31
2023-03-06T11:46:06.437Z,79.70
2023-03-06T11:48:37.702Z,78.47
2023-03-06T11:51:14.976Z,76.24
2023-03-06T11:53:42.695Z,78.25
2023-03-06T11:56:30.537Z,80.37
2023-03-06T11:59:07.845Z,78.69
2023-03-06T12:01:39.964Z,81.89
2023-03-06T12:04:38.596Z,81.61
2023-03-06T12:07:20.789Z,77.03
2023-03-06T12:09:56.735Z,78.17
2023-03-06T12:12:38.569Z,77.58
2023-03-06T12:15:23.607Z,78.55
2023-03-06T12:18:14.159Z,77.61
2023-03-06T12:20:54.253Z,78.86
2023-03-06T12:23:43.642Z,77.84
2023-03-06T12:26:28.631Z,76.76
2023-03-06T12:29:12.815Z,75.27
2023-03-06T12:31:54.007Z,74.40
2023-03-06T12:34:34.280Z,74.10
2023-03-06T12:37:13.969Z,75.03
2023-03-06T12:39:55.647Z,73.43
2023-03-06T12:42:39.761Z,71.97
2023-03-06T12:45:28.437Z,73.18
2023-03-06T12:47:57.969Z,72.75
2023-03-06T12:50:28.401Z,71.35
2023-03-06T12:52:58.940Z,70.07
2023-03-06T12:55:28.085Z,69.56
2023-03-06T12:57:55.694Z,70.18
2023-03-06T13:01:05.778Z,70.43
2023-03-06T13:03:49.699Z,69.54
2023-03-06T13:06:44.961Z,64.69
2023-03-06T13:09:20.705Z,67.69
2023-03-06T13:12:05.231Z,68.58
2023-03-06T13:14:54.841Z,70.73
2023-03-06T13:17:34.397Z,71.18
2023-03-06T13:20:23.793Z,72.55
2023-03-06T13:22:51.298Z,72.95
2023-03-06T13:25:48.781Z,73.22
2023-03-06T13:28:40.833Z,73.63
2023-03-06T13:31:21.390Z,72.69
2023-03-06T13:34:00.042Z,73.64
2023-03-06T13:36:29.948Z,73.22
2023-03-06T13:39:08.536Z,71.48
2023-03-06T13:41:41.454Z,69.85
2023-03-06T13:44:49.552Z,70.61
2023-03-06T13:48:05.805Z,67.15
2023-03-06T13:50:36.523Z,67.29
2023-03-06T13:53:21.722Z,65.50
2023-03-06T13:56:00.142Z,67.69
2023-03-06T13:58:42.524Z,62.01
2023-03-06T14:01:28.126Z,64.86
2023-03-06T14:04:19.737Z,65.54
2023-03-06T14:07:01.669Z,64.88
2023-03-06T14:09:33.538Z,62.63
2023-03-06T14:12:08.729Z,62.24
2023-03-06T14:14:40.982Z,63.64
2023-03-06T14:17:19.277Z,61.63
2023-03-06T14:19:48.493Z,62.50
2023-03-06T14:22:19.624Z,62.72
2023-03-06T14:24:55.995Z,64.38
2023-03-06T14:27:45.701Z,63.68
2023-03-06T14:30:16.745Z,62.75
2023-03-06T14:32:44.481Z,62.00
2023-03-06T14:35:29.499Z,60.75
2023-03-06T14:38:00.115Z,61.20
2023-03-06T14:40:32.419Z,62.59
2023-03-06T14:43:21.537Z,62.70
2023-03-06T14:45:55.277Z,61.84
2023-03-06T14:48:23.541Z,63.08
2023-03-06T14:50:54.811Z,65.74
2023-03-06T14:53:25.670Z,67.02
2023-03-06T14:55:57.741Z,68.43
2023-03-06T14:58:32.394Z,69.07
2023-03-06T15:01:04.364Z,69.92
2023-03-06T15:03:39.623Z,70.43
2023-03-06T15:06:11.883Z,71.91
2023-03-06T15:08:41.408Z,72.84
2023-03-06T15:11:08.936Z,72.04
2023-03-06T15:13:36.678Z,73.32
2023-03-06T15:16:06.176Z,74.11
2023-03-06T15:18:38.736Z,73.40
2023-03-06T15:21:17.927Z,73.65
2023-03-06T15:23:47.124Z,74.58
2023-03-06T15:26:28.046Z,74.25
2023-03-06T15:29:08.315Z,75.23
2023-03-06T15:31:38.151Z,74.84
2023-03-06T15:34:23.408Z,75.30
2023-03-06T15:36:55.175Z,75.03
2023-03-06T15:39:35.234Z,75.22
2023-03-06T15:42:08.519Z,76.36
2023-03-06T15:44:36.086Z,76.40
2023-03-06T15:47:08.828Z,75.54
2023-03-06T15:49:38.098Z,74.88
2023-03-06T15:52:07.555Z,75.16
2023-03-06T15:54:35.652Z,75.32
2023-03-06T15:57:05.132Z,75.79
2023-03-06T15:59:36.302Z,75.76
2023-03-06T16:02:12.571Z,75.81
2023-03-06T16:04:40.234Z,76.62
2023-03-06T16:07:09.326Z,76.80
2023-03-06T16:09:37.063Z,76.83
2023-03-06T16:12:05.492Z,76.76
2023-03-06T16:14:33.144Z,76.22
2023-03-06T16:17:00.673Z,76.20
2023-03-06T16:19:28.264Z,76.24
2023-03-06T16:21:56.591Z,76.13
2023-03-06T16:24:26.084Z,76.69
2023-03-06T16:26:55.194Z,76.50
2023-03-06T16:29:24.554Z,76.65
2023-03-06T16:31:52.483Z,77.18
2023-03-06T16:34:20.047Z,76.27
2023-03-06T16:36:49.092Z,75.46
2023-03-06T16:39:18.171Z,74.54
2023-03-06T16:41:47.251Z,73.24
2023-03-06T16:44:14.777Z,72.12
2023-03-06T16:46:45.655Z,73.22
2023-03-06T16:49:17.200Z,73.35
2023-03-06T16:51:45.058Z,71.94
2023-03-06T16:54:12.908Z,72.14
2023-03-06T16:56:40.470Z,71.47
2023-03-06T16:59:09.787Z,71.64
2023-03-06T17:01:37.445Z,71.76
2023-03-06T17:04:05.417Z,72.38
2023-03-06T17:06:33.037Z,71.27
2023-03-06T17:09:00.662Z,71.15
2023-03-06T17:11:29.348Z,71.00
2023-03-06T17:13:56.884Z,71.06
2023-03-06T17:16:25.771Z,71.54
2023-03-06T17:18:53.322Z,72.30
2023-03-06T17:21:20.829Z,71.94
2023-03-06T17:23:48.386Z,72.02
2023-03-06T17:26:18.742Z,72.28
2023-03-06T17:28:47.282Z,72.38
2023-03-06T17:31:16.572Z,72.62
2023-03-06T17:33:45.977Z,72.54
2023-03-06T17:36:14.282Z,73.08
2023-03-06T17:38:42.012Z,73.88
2023-03-06T17:41:11.465Z,74.64
2023-03-06T17:43:39.690Z,74.80
2023-03-06T17:46:08.744Z,75.04
2023-03-06T17:48:37.207Z,75.78
2023-03-06T17:51:07.316Z,76.42
2023-03-06T17:53:34.897Z,77.03
2023-03-06T17:56:04.117Z,77.81
2023-03-06T17:58:32.144Z,78.25
2023-03-06T18:01:00.149Z,78.46
2023-03-06T18:03:27.715Z,78.88
2023-03-06T18:06:04.474Z,78.85
2023-03-06T18:08:33.400Z,79.22
2023-03-06T18:11:03.382Z,79.56
2023-03-06T18:13:31.068Z,80.23
2023-03-06T18:15:58.644Z,80.47
2023-03-06T18:18:26.437Z,79.76
2023-03-06T18:20:54.035Z,80.41
2023-03-06T18:23:21.601Z,80.33
2023-03-06T18:25:50.962Z,80.64
2023-03-06T18:28:18.491Z,80.78
2023-03-06T18:30:46.561Z,80.14
2023-03-06T18:33:14.158Z,80.42
2023-03-06T18:35:43.991Z,81.16
2023-03-06T18:38:11.607Z,80.61
2023-03-06T18:40:39.240Z,80.66
2023-03-06T18:43:08.144Z,80.97
2023-03-06T18:45:35.748Z,80.96
2023-03-06T18:48:04.803Z,80.73
2023-03-06T18:50:32.326Z,81.45
2023-03-06T18:52:59.824Z,80.79
2023-03-06T18:55:27.344Z,81.65
2023-03-06T18:57:54.918Z,81.27
2023-03-06T19:00:24.482Z,80.47
2023-03-06T19:02:51.996Z,80.23
2023-03-06T19:05:19.505Z,79.69
2023-03-06T19:07:47.091Z,79.67
2023-03-06T19:10:14.588Z,79.87
2023-03-06T19:12:42.181Z,79.62
2023-03-06T19:15:10.476Z,79.17
2023-03-06T19:17:39.446Z,79.44
2023-03-06T19:20:08.055Z,79.16
2023-03-06T19:22:35.645Z,79.23
2023-03-06T19:25:03.964Z,78.51
2023-03-06T19:27:32.549Z,78.88
2023-03-06T19:30:00.120Z,78.32
2023-03-06T19:32:28.754Z,78.00
2023-03-06T19:34:59.218Z,77.77
2023-03-06T19:37:26.778Z,77.65
2023-03-06T19:39:54.388Z,77.63
2023-03-06T19:42:21.919Z,77.55
2023-03-06T19:44:49.490Z,77.56
2023-03-06T19:47:16.983Z,77.63
2023-03-06T19:49:44.612Z,77.10
2023-03-06T19:52:13.773Z,77.19
2023-03-06T19:54:41.373Z,76.79
2023-03-06T19:57:08.941Z,76.83
2023-03-06T19:59:36.511Z,76.76
2023-03-06T20:02:04.007Z,76.17
2023-03-06T20:04:33.336Z,75.99
2023-03-06T20:07:00.951Z,75.81
2023-03-06T20:09:32.231Z,75.72
2023-03-06T20:11:59.969Z,76.10
2023-03-06T20:14:27.546Z,75.51
2023-03-06T20:16:55.149Z,75.29
2023-03-06T20:19:22.722Z,75.12
2023-03-06T20:21:50.265Z,74.64
2023-03-06T20:24:18.729Z,74.81
2023-03-06T20:26:48.823Z,74.77
2023-03-06T20:29:16.355Z,75.52
2023-03-06T20:31:43.996Z,75.12
2023-03-06T20:34:12.062Z,74.93
2023-03-06T20:36:41.370Z,74.55
2023-03-06T20:39:12.151Z,75.23
2023-03-06T20:41:40.262Z,75.08
2023-03-06T20:44:13.516Z,75.88
2023-03-06T20:46:41.284Z,75.90
2023-03-06T20:49:09.576Z,75.32
2023-03-06T20:51:39.210Z,75.93
2023-03-06T20:54:08.047Z,76.27
2023-03-06T20:56:39.335Z,76.00
2023-03-06T20:59:07.553Z,75.88
2023-03-06T21:01:39.016Z,77.35
2023-03-06T21:04:06.700Z,77.24
2023-03-06T21:06:34.406Z,77.64
2023-03-06T21:09:02.476Z,77.90
2023-03-06T21:11:30.058Z,79.14
2023-03-06T21:13:57.738Z,79.39
2023-03-06T21:16:26.917Z,79.55
2023-03-06T21:18:56.973Z,80.14
2023-03-06T21:21:28.202Z,80.51
2023-03-06T21:23:55.944Z,80.89
2023-03-06T21:26:25.553Z,80.99
2023-03-06T21:28:53.481Z,80.84
2023-03-06T21:31:22.595Z,81.57
2023-03-06T21:33:51.501Z,81.40
2023-03-06T21:36:22.420Z,81.98
2023-03-06T21:38:51.078Z,82.00
2023-03-06T21:41:20.053Z,82.29
2023-03-06T21:43:47.676Z,82.61
2023-03-06T21:46:15.247Z,82.70
2023-03-06T21:48:42.866Z,82.49
2023-03-06T21:51:12.649Z,82.47
2023-03-06T21:53:43.974Z,83.15
2023-03-06T21:56:12.910Z,82.83
2023-03-06T21:58:41.699Z,82.95
2023-03-06T22:01:10.599Z,83.11
2023-03-06T22:03:38.301Z,83.34
2023-03-06T22:06:10.801Z,83.19
2023-03-06T22:08:38.418Z,83.53
2023-03-06T22:11:09.397Z,83.44
2023-03-06T22:13:37.214Z,83.73
2023-03-06T22:16:05.576Z,83.53
2023-03-06T22:18:33.371Z,82.95
2023-03-06T22:21:00.899Z,82.75
2023-03-06T22:23:28.400Z,82.18
2023-03-06T22:25:55.949Z,81.60
2023-03-06T22:28:24.818Z,82.00
2023-03-06T22:30:52.298Z,82.09
2023-03-06T22:33:19.821Z,81.73
2023-03-06T22:35:47.363Z,82.31
2023-03-06T22:38:15.893Z,82.06
2023-03-06T22:40:43.429Z,81.96
2023-03-06T22:43:10.981Z,82.02
2023-03-06T22:45:39.879Z,82.17
2023-03-06T22:48:11.142Z,82.72
2023-03-06T22:50:38.841Z,84.28
2023-03-06T22:53:06.328Z,87.65
2023-03-06T22:55:35.805Z,90.20
2023-03-06T22:58:03.408Z,91.96
2023-03-06T23:00:30.930Z,93.36
2023-03-06T23:02:59.843Z,95.06
2023-03-06T23:05:29.358Z,97.35
2023-03-06T23:07:57.125Z,99.67
2023-03-06T23:10:24.644Z,100.00
2023-03-06T23:13:10.683Z,100.00
2023-03-06T23:15:56.730Z,100.00
2023-03-06T23:18:44.036Z,100.00
2023-03-06T23:21:30.309Z,100.00
2023-03-06T23:24:17.076Z,100.00
2023-03-06T23:26:44.642Z,100.00
2023-03-06T23:29:12.501Z,100.00
2023-03-06T23:31:39.997Z,100.00
2023-03-06T23:34:11.427Z,100.00
2023-03-06T23:36:38.911Z,100.00
2023-03-06T23:39:06.426Z,100.00
2023-03-06T23:41:34.114Z,100.00
2023-03-06T23:44:01.668Z,100.00
2023-03-06T23:46:29.300Z,100.00
2023-03-06T23:48:56.922Z,100.00
2023-03-06T23:51:25.805Z,100.00
2023-03-06T23:53:59.802Z,100.00
2023-03-06T23:56:29.190Z,100.00
2023-03-06T23:58:56.846Z,100.00
